Time;durP1;ratioP1;P1;durP2;ratioP2;P2;SDS_P1;SDS_P2;PMS_P1;PMS_P2;Temp;Humidity;BMP_temperature;BMP_pressure;BME280_temperature;BME280_humidity;BME280_pressure;Samples;Min_cycle;Max_cycle;Signal;HPM_P1;HPM_P2
2022/12/28 00:02:10;;;;;;;10.20;3.60;;;;;;;;;;6207588;23;20143;-70
2022/12/28 00:04:35;;;;;;;6.53;3.07;;;;;;;;;;6208051;23;20148;-70
2022/12/28 00:07:01;;;;;;;11.73;3.80;;;;;;;;;;6205799;23;20205;-70
2022/12/28 00:09:29;;;;;;;10.27;3.60;;;;;;;;;;6206802;23;20219;-70
2022/12/28 00:11:54;;;;;;;9.47;4.10;;;;;;;;;;6206432;23;20588;-70
2022/12/28 00:14:20;;;;;;;13.40;4.13;;;;;;;;;;6206254;23;20441;-70
2022/12/28 00:16:45;;;;;;;8.57;4.00;;;;;;;;;;6206410;23;20168;-70
2022/12/28 00:19:12;;;;;;;7.13;3.60;;;;;;;;;;6208928;23;20163;-70
2022/12/28 00:21:37;;;;;;;8.30;3.80;;;;;;;;;;6210402;23;20642;-70
2022/12/28 00:24:03;;;;;;;7.67;4.30;;;;;;;;;;6210679;23;20358;-70
2022/12/28 00:26:29;;;;;;;8.57;4.63;;;;;;;;;;6212608;23;20152;-70
2022/12/28 00:28:55;;;;;;;5.83;3.53;;;;;;;;;;6210661;23;20184;-70
2022/12/28 00:31:20;;;;;;;6.57;3.60;;;;;;;;;;6210134;23;20837;-70
2022/12/28 00:33:46;;;;;;;13.13;3.70;;;;;;;;;;6212831;23;20148;-72
2022/12/28 00:36:12;;;;;;;7.73;3.33;;;;;;;;;;6203736;23;20156;-70
2022/12/28 00:38:37;;;;;;;12.90;4.10;;;;;;;;;;6210252;23;20508;-71
2022/12/28 00:41:07;;;;;;;8.67;3.33;;;;;;;;;;6208190;23;20375;-70
2022/12/28 00:43:32;;;;;;;11.57;5.20;;;;;;;;;;6209950;23;20194;-70
2022/12/28 00:45:57;;;;;;;9.63;3.80;;;;;;;;;;6210007;23;20375;-70
2022/12/28 00:48:23;;;;;;;10.40;4.30;;;;;;;;;;6209066;23;20156;-71
2022/12/28 00:50:48;;;;;;;9.93;4.63;;;;;;;;;;6207191;23;20159;-71
2022/12/28 00:53:14;;;;;;;12.20;4.80;;;;;;;;;;6207739;23;20162;-71
2022/12/28 00:55:41;;;;;;;9.87;4.07;;;;;;;;;;6206590;23;20155;-71
2022/12/28 00:58:06;;;;;;;10.90;3.90;;;;;;;;;;6208612;23;20176;-70
2022/12/28 01:00:32;;;;;;;8.63;4.00;;;;;;;;;;6211872;23;20382;-70
2022/12/28 01:02:57;;;;;;;6.43;3.63;;;;;;;;;;6209960;23;20322;-70
2022/12/28 01:05:23;;;;;;;10.00;3.77;;;;;;;;;;6209283;23;20148;-71
2022/12/28 01:07:48;;;;;;;7.63;3.80;;;;;;;;;;6207738;23;20148;-70
2022/12/28 01:10:14;;;;;;;7.20;3.60;;;;;;;;;;6210625;23;20631;-71
2022/12/28 01:12:39;;;;;;;11.80;4.10;;;;;;;;;;6204413;23;20543;-71
2022/12/28 01:15:05;;;;;;;10.67;3.97;;;;;;;;;;6208068;23;20148;-71
2022/12/28 01:17:31;;;;;;;7.10;3.80;;;;;;;;;;6207981;23;20233;-71
2022/12/28 01:19:56;;;;;;;6.50;3.70;;;;;;;;;;6207014;23;20387;-71
2022/12/28 01:22:22;;;;;;;11.73;4.80;;;;;;;;;;6207983;23;20222;-71
2022/12/28 01:24:47;;;;;;;9.03;3.30;;;;;;;;;;6211154;23;20154;-71
2022/12/28 01:27:12;;;;;;;14.43;3.83;;;;;;;;;;6209906;23;20540;-70
2022/12/28 01:29:38;;;;;;;9.20;4.37;;;;;;;;;;6208520;23;20176;-71
2022/12/28 01:32:04;;;;;;;11.00;4.37;;;;;;;;;;6210736;23;20152;-71
2022/12/28 01:34:29;;;;;;;12.33;4.00;;;;;;;;;;6212661;23;20213;-71
2022/12/28 01:36:54;;;;;;;6.17;3.47;;;;;;;;;;6211674;23;20549;-71
2022/12/28 01:39:19;;;;;;;8.67;3.43;;;;;;;;;;6212077;23;20655;-71
2022/12/28 01:41:45;;;;;;;11.10;3.90;;;;;;;;;;6210398;23;20725;-71
2022/12/28 01:44:10;;;;;;;6.33;3.67;;;;;;;;;;6210205;23;20155;-70
2022/12/28 01:46:37;;;;;;;5.27;3.07;;;;;;;;;;6211150;23;20374;-69
2022/12/28 01:49:08;;;;;;;9.53;3.13;;;;;;;;;;6209022;23;20202;-69
2022/12/28 01:51:41;;;;;;;6.30;3.60;;;;;;;;;;6211741;23;20857;-70
2022/12/28 01:54:07;;;;;;;6.90;4.27;;;;;;;;;;6209350;23;20371;-69
2022/12/28 01:56:33;;;;;;;9.63;4.07;;;;;;;;;;6208555;23;20789;-69
2022/12/28 01:58:58;;;;;;;7.13;3.10;;;;;;;;;;6206417;23;20414;-69
2022/12/28 02:01:24;;;;;;;7.30;3.10;;;;;;;;;;6207572;23;20170;-68
2022/12/28 02:03:49;;;;;;;7.93;3.87;;;;;;;;;;6208099;23;20207;-70
2022/12/28 02:06:15;;;;;;;7.37;3.10;;;;;;;;;;6206758;23;20202;-68
2022/12/28 02:08:40;;;;;;;10.33;4.17;;;;;;;;;;6205762;23;20939;-68
2022/12/28 02:11:06;;;;;;;9.23;3.40;;;;;;;;;;6209069;23;20227;-68
2022/12/28 02:13:32;;;;;;;8.70;3.60;;;;;;;;;;6205772;23;20588;-68
2022/12/28 02:15:57;;;;;;;7.70;3.67;;;;;;;;;;6205333;23;20371;-69
2022/12/28 02:18:24;;;;;;;10.50;3.43;;;;;;;;;;6207080;23;20569;-69
2022/12/28 02:20:49;;;;;;;9.17;3.80;;;;;;;;;;6206687;23;20155;-69
2022/12/28 02:23:17;;;;;;;6.30;3.93;;;;;;;;;;6202643;23;20363;-69
2022/12/28 02:26:09;;;;;;;8.43;4.10;;;;;;;;;;6205567;23;20230;-69
2022/12/28 02:28:37;;;;;;;10.50;3.93;;;;;;;;;;6207343;23;20472;-69
2022/12/28 02:31:06;;;;;;;8.93;4.30;;;;;;;;;;6208227;23;20446;-69
2022/12/28 02:33:39;;;;;;;6.70;3.90;;;;;;;;;;6206306;23;20841;-69
2022/12/28 02:36:07;;;;;;;7.87;4.27;;;;;;;;;;6207842;23;20356;-70
2022/12/28 02:38:54;;;;;;;8.80;3.80;;;;;;;;;;6206381;23;20433;-69
2022/12/28 02:41:21;;;;;;;7.77;4.17;;;;;;;;;;6205108;23;20371;-69
2022/12/28 02:43:46;;;;;;;13.73;4.70;;;;;;;;;;6209900;23;20363;-69
2022/12/28 02:52:07;;;;;;;10.23;4.70;;;;;;;;;;6205326;23;20410;-69
2022/12/28 02:57:37;;;;;;;9.80;5.87;;;;;;;;;;6207381;23;20566;-70
2022/12/28 03:00:07;;;;;;;12.23;4.60;;;;;;;;;;6208642;23;20406;-69
2022/12/28 03:02:33;;;;;;;10.17;5.30;;;;;;;;;;6206506;23;20395;-69
2022/12/28 03:05:16;;;;;;;7.83;4.83;;;;;;;;;;6206892;23;20409;-69
2022/12/28 03:10:39;;;;;;;7.53;4.40;;;;;;;;;;6207940;23;20362;-69
2022/12/28 03:16:01;;;;;;;11.20;5.00;;;;;;;;;;6211324;23;20892;-69
2022/12/28 03:32:10;;;;;;;10.77;4.90;;;;;;;;;;6208261;23;20447;-70
2022/12/28 03:34:38;;;;;;;11.80;6.33;;;;;;;;;;6204979;23;20371;-69
2022/12/28 03:37:09;;;;;;;14.53;7.50;;;;;;;;;;6207877;23;20186;-69
2022/12/28 03:39:41;;;;;;;7.90;5.00;;;;;;;;;;6209236;23;20689;-70
2022/12/28 03:45:09;;;;;;;9.10;4.47;;;;;;;;;;6208778;23;20371;-69
2022/12/28 03:47:36;;;;;;;9.73;4.93;;;;;;;;;;6208576;23;20371;-70
2022/12/28 03:50:02;;;;;;;8.00;4.23;;;;;;;;;;6207601;23;20728;-70
2022/12/28 03:52:28;;;;;;;9.50;4.67;;;;;;;;;;6205957;23;20382;-70
2022/12/28 03:55:02;;;;;;;6.00;5.20;;;;;;;;;;6205901;23;20383;-69
2022/12/28 03:57:28;;;;;;;6.47;4.90;;;;;;;;;;6208306;23;20379;-69
2022/12/28 03:59:53;;;;;;;7.40;4.60;;;;;;;;;;6206496;23;20411;-69
2022/12/28 04:02:18;;;;;;;8.27;5.13;;;;;;;;;;6206044;23;20154;-69
2022/12/28 04:04:44;;;;;;;10.10;5.50;;;;;;;;;;6208049;23;20217;-68
2022/12/28 04:07:09;;;;;;;9.00;5.17;;;;;;;;;;6207105;23;20147;-68
2022/12/28 04:09:34;;;;;;;9.73;5.10;;;;;;;;;;6207245;23;20164;-68
2022/12/28 04:11:59;;;;;;;6.63;4.90;;;;;;;;;;6207252;23;20152;-68
2022/12/28 04:14:25;;;;;;;9.93;5.03;;;;;;;;;;6207947;23;20152;-69
2022/12/28 04:16:50;;;;;;;8.53;5.90;;;;;;;;;;6205759;23;20314;-69
2022/12/28 04:19:15;;;;;;;5.97;5.10;;;;;;;;;;6206069;23;20164;-69
2022/12/28 04:21:41;;;;;;;5.67;4.70;;;;;;;;;;6203471;23;20152;-69
2022/12/28 04:24:06;;;;;;;8.03;5.00;;;;;;;;;;6206285;23;20586;-69
2022/12/28 04:26:32;;;;;;;8.83;4.63;;;;;;;;;;6205247;23;20144;-70
2022/12/28 04:29:00;;;;;;;5.30;4.47;;;;;;;;;;6207187;23;20164;-69
2022/12/28 04:31:26;;;;;;;6.90;4.07;;;;;;;;;;6204800;23;20151;-69
2022/12/28 04:33:52;;;;;;;6.33;4.60;;;;;;;;;;6206701;23;20700;-70
2022/12/28 04:36:17;;;;;;;10.40;4.47;;;;;;;;;;6208949;23;20739;-70
2022/12/28 04:38:42;;;;;;;5.93;4.40;;;;;;;;;;6207528;23;20172;-70
2022/12/28 04:41:08;;;;;;;7.70;5.60;;;;;;;;;;6205642;23;20704;-69
2022/12/28 04:43:34;;;;;;;10.33;4.90;;;;;;;;;;6209257;23;20501;-69
2022/12/28 04:46:01;;;;;;;5.83;4.43;;;;;;;;;;6208491;23;20425;-69
2022/12/28 04:48:26;;;;;;;8.70;4.80;;;;;;;;;;6205781;23;20517;-69
2022/12/28 04:50:55;;;;;;;6.83;5.33;;;;;;;;;;6206302;23;20379;-70
2022/12/28 04:53:21;;;;;;;6.07;4.80;;;;;;;;;;6206078;23;20160;-69
2022/12/28 04:55:46;;;;;;;7.60;3.90;;;;;;;;;;6209458;23;20830;-69
2022/12/28 04:58:12;;;;;;;4.33;3.93;;;;;;;;;;6209404;23;20179;-69
2022/12/28 05:00:47;;;;;;;7.33;4.77;;;;;;;;;;6210497;22;20226;-76
2022/12/28 05:03:18;;;;;;;5.80;4.10;;;;;;;;;;6212010;23;20163;-76
2022/12/28 05:05:48;;;;;;;6.90;4.30;;;;;;;;;;6213117;23;20372;-75
2022/12/28 05:08:19;;;;;;;6.53;4.37;;;;;;;;;;6214876;23;21141;-76
2022/12/28 05:10:49;;;;;;;4.80;4.40;;;;;;;;;;6185289;23;20442;-76
2022/12/28 05:13:20;;;;;;;6.07;4.20;;;;;;;;;;6184316;23;20438;-76
2022/12/28 05:15:53;;;;;;;4.80;4.33;;;;;;;;;;6183072;23;20403;-76
2022/12/28 05:18:26;;;;;;;7.03;3.93;;;;;;;;;;6181105;23;20416;-76
2022/12/28 05:21:23;;;;;;;4.40;4.00;;;;;;;;;;6183004;23;20387;-76
2022/12/28 05:23:54;;;;;;;4.23;3.37;;;;;;;;;;6187512;23;20376;-76
2022/12/28 05:26:29;;;;;;;4.20;3.80;;;;;;;;;;6179702;23;20444;-76
2022/12/28 05:29:11;;;;;;;5.70;3.63;;;;;;;;;;6182591;23;20406;-75
2022/12/28 05:31:49;;;;;;;3.53;3.23;;;;;;;;;;6181218;23;20368;-75
2022/12/28 05:34:20;;;;;;;7.90;3.13;;;;;;;;;;6181688;23;20352;-76
2022/12/28 05:37:01;;;;;;;;;;;;;;;;;;;;;
2022/12/28 05:39:31;;;;;;;5.17;3.60;;;;;;;;;;6181861;23;20806;-75
2022/12/28 05:42:04;;;;;;;4.70;3.40;;;;;;;;;;6181502;23;20414;-76
2022/12/28 05:44:39;;;;;;;8.90;3.90;;;;;;;;;;6181401;23;20347;-76
2022/12/28 05:47:12;;;;;;;6.37;3.90;;;;;;;;;;6183368;23;20430;-76
2022/12/28 05:49:46;;;;;;;3.60;3.30;;;;;;;;;;6180014;23;20474;-76
2022/12/28 05:52:16;;;;;;;3.90;3.07;;;;;;;;;;6182863;23;20383;-76
2022/12/28 05:54:49;;;;;;;3.93;3.53;;;;;;;;;;6180875;23;20383;-75
2022/12/28 05:57:20;;;;;;;6.17;3.77;;;;;;;;;;6183128;23;20873;-76
2022/12/28 05:59:53;;;;;;;4.00;3.70;;;;;;;;;;6181168;23;20690;-76
2022/12/28 06:02:34;;;;;;;;;;;;;;;;;;;;;
2022/12/28 06:05:15;;;;;;;;;;;;;;;;;;;;;
2022/12/28 06:07:58;;;;;;;4.27;3.87;;;;;;;;;;6182013;23;20443;-76
2022/12/28 06:10:31;;;;;;;4.53;4.13;;;;;;;;;;6182196;23;20418;-76
2022/12/28 06:13:09;;;;;;;4.53;4.13;;;;;;;;;;6180834;23;20906;-76
2022/12/28 06:15:46;;;;;;;4.20;3.90;;;;;;;;;;6180983;23;20435;-76
2022/12/28 06:18:14;;;;;;;4.00;3.70;;;;;;;;;;6181731;23;20731;-76
2022/12/28 06:20:52;;;;;;;5.00;4.60;;;;;;;;;;6178713;23;20404;-76
2022/12/28 06:23:30;;;;;;;5.67;4.77;;;;;;;;;;6183170;23;20405;-76
2022/12/28 06:26:04;;;;;;;5.57;4.57;;;;;;;;;;6181556;23;20360;-76
2022/12/28 06:28:43;;;;;;;5.67;4.83;;;;;;;;;;6182246;23;20359;-76
2022/12/28 06:31:15;;;;;;;5.83;5.33;;;;;;;;;;6182132;23;20351;-76
2022/12/28 06:33:57;;;;;;;5.97;5.40;;;;;;;;;;6181247;23;20372;-76
2022/12/28 06:36:29;;;;;;;5.27;4.77;;;;;;;;;;6179930;23;20885;-76
2022/12/28 06:39:10;;;;;;;8.17;5.07;;;;;;;;;;6178028;23;20402;-76
2022/12/28 06:41:50;;;;;;;6.27;5.70;;;;;;;;;;6180856;23;20371;-76
2022/12/28 06:44:23;;;;;;;5.77;5.20;;;;;;;;;;6181754;23;21102;-77
2022/12/28 06:46:57;;;;;;;8.47;6.37;;;;;;;;;;6182622;23;20360;-76
2022/12/28 06:49:30;;;;;;;7.10;6.50;;;;;;;;;;6178872;23;20427;-76
2022/12/28 06:52:01;;;;;;;7.23;6.53;;;;;;;;;;6183133;23;20353;-76
2022/12/28 06:54:31;;;;;;;7.50;6.90;;;;;;;;;;6182470;23;20363;-76
2022/12/28 06:57:01;;;;;;;10.83;7.50;;;;;;;;;;6182108;23;20423;-76
2022/12/28 06:59:40;;;;;;;10.40;7.70;;;;;;;;;;6181397;23;20467;-76
2022/12/28 07:02:13;;;;;;;8.87;7.60;;;;;;;;;;6182169;23;20511;-76
2022/12/28 07:04:41;;;;;;;9.00;7.93;;;;;;;;;;6179994;23;20379;-76
2022/12/28 07:07:12;;;;;;;12.00;7.93;;;;;;;;;;6183108;23;20451;-75
2022/12/28 07:09:42;;;;;;;11.87;8.70;;;;;;;;;;6179934;23;20427;-76
2022/12/28 07:12:22;;;;;;;7.70;6.60;;;;;;;;;;6179309;23;20431;-76
2022/12/28 07:14:55;;;;;;;7.20;6.60;;;;;;;;;;6180389;23;20382;-75
2022/12/28 07:17:25;;;;;;;6.83;6.23;;;;;;;;;;6179407;23;20411;-76
2022/12/28 07:19:59;;;;;;;7.03;6.27;;;;;;;;;;6180281;23;20394;-76
2022/12/28 07:22:38;;;;;;;6.67;6.00;;;;;;;;;;6177709;23;20352;-76
2022/12/28 07:25:10;;;;;;;7.20;6.53;;;;;;;;;;6179443;23;20446;-76
2022/12/28 07:27:40;;;;;;;6.60;6.00;;;;;;;;;;6178018;23;20383;-76
2022/12/28 07:30:10;;;;;;;6.80;5.93;;;;;;;;;;6190500;23;20384;-76
2022/12/28 07:32:44;;;;;;;6.20;5.40;;;;;;;;;;6200610;23;20396;-76
2022/12/28 07:35:14;;;;;;;6.40;5.50;;;;;;;;;;6201479;23;20363;-76
2022/12/28 07:37:42;;;;;;;5.73;5.13;;;;;;;;;;6203799;23;20925;-75
2022/12/28 07:40:12;;;;;;;5.63;5.17;;;;;;;;;;6205027;23;20391;-76
2022/12/28 07:42:56;;;;;;;5.33;4.93;;;;;;;;;;6200551;23;20372;-76
2022/12/28 07:45:23;;;;;;;5.87;5.30;;;;;;;;;;6201572;23;20387;-75
2022/12/28 07:48:00;;;;;;;6.33;5.73;;;;;;;;;;6202438;23;20604;-76
2022/12/28 07:50:30;;;;;;;5.50;5.07;;;;;;;;;;6198649;23;20386;-76
2022/12/28 07:53:00;;;;;;;6.33;5.83;;;;;;;;;;6181275;23;20367;-76
2022/12/28 07:55:39;;;;;;;6.80;6.20;;;;;;;;;;6179749;23;20693;-76
2022/12/28 07:58:09;;;;;;;6.73;5.43;;;;;;;;;;6178014;23;20414;-77
2022/12/28 08:00:48;;;;;;;7.27;6.20;;;;;;;;;;6177985;23;20415;-76
2022/12/28 08:03:19;;;;;;;6.73;6.13;;;;;;;;;;6178704;23;20364;-76
2022/12/28 08:05:48;;;;;;;5.70;5.20;;;;;;;;;;6178324;23;20391;-75
2022/12/28 08:08:29;;;;;;;6.20;5.60;;;;;;;;;;6178034;23;20372;-76
2022/12/28 08:11:20;;;;;;;5.63;5.13;;;;;;;;;;6177123;23;20417;-76
2022/12/28 08:14:06;;;;;;;6.33;5.73;;;;;;;;;;6169384;23;20384;-76
2022/12/28 08:16:52;;;;;;;;;;;;;;;;;;;;;
2022/12/28 08:19:20;;;;;;;7.70;7.00;;;;;;;;;;6180142;23;20443;-77
2022/12/28 08:21:50;;;;;;;8.07;7.37;;;;;;;;;;6180082;23;20361;-76
2022/12/28 08:24:29;;;;;;;6.73;6.13;;;;;;;;;;6179442;23;20379;-76
2022/12/28 08:27:00;;;;;;;7.67;7.00;;;;;;;;;;6179147;23;20422;-77
2022/12/28 08:29:30;;;;;;;6.93;6.33;;;;;;;;;;6179938;23;20398;-76
2022/12/28 08:32:03;;;;;;;8.10;7.40;;;;;;;;;;6178786;23;20376;-76
2022/12/28 08:34:36;;;;;;;8.73;7.30;;;;;;;;;;6180726;23;20367;-76
2022/12/28 08:37:10;;;;;;;8.60;7.90;;;;;;;;;;6177755;23;20430;-76
2022/12/28 08:39:40;;;;;;;8.93;7.40;;;;;;;;;;6177642;23;20399;-77
2022/12/28 08:42:11;;;;;;;9.80;8.17;;;;;;;;;;6178691;23;20396;-76
2022/12/28 08:44:44;;;;;;;9.70;8.70;;;;;;;;;;6179642;23;20681;-76
2022/12/28 08:47:24;;;;;;;9.63;8.73;;;;;;;;;;6181896;23;20384;-76
2022/12/28 08:49:52;;;;;;;8.80;8.00;;;;;;;;;;6181797;23;20403;-76
2022/12/28 08:52:27;;;;;;;9.37;8.47;;;;;;;;;;6181902;23;20858;-76
2022/12/28 08:55:01;;;;;;;9.97;9.00;;;;;;;;;;6185440;23;20356;-76
2022/12/28 08:57:34;;;;;;;9.80;8.80;;;;;;;;;;6183613;23;20404;-76
2022/12/28 09:00:04;;;;;;;14.20;8.73;;;;;;;;;;6183838;23;20382;-77
2022/12/28 09:02:34;;;;;;;11.37;8.37;;;;;;;;;;6182591;23;20458;-76
2022/12/28 09:05:08;;;;;;;9.87;8.93;;;;;;;;;;6182355;23;20719;-75
2022/12/28 09:07:44;;;;;;;8.60;7.80;;;;;;;;;;6181555;23;20714;-76
2022/12/28 09:10:15;;;;;;;9.60;8.70;;;;;;;;;;6184170;23;20769;-76
2022/12/28 09:12:40;;;;;;;10.17;8.67;;;;;;;;;;6182476;23;20399;-76
2022/12/28 09:15:09;;;;;;;11.17;9.83;;;;;;;;;;6184036;23;20368;-76
2022/12/28 09:17:39;;;;;;;9.97;9.00;;;;;;;;;;6180421;23;20175;-76
2022/12/28 09:20:05;;;;;;;10.03;8.83;;;;;;;;;;6188436;23;20463;-76
2022/12/28 09:22:36;;;;;;;8.50;7.80;;;;;;;;;;6200665;23;20372;-78
2022/12/28 09:25:06;;;;;;;9.10;8.23;;;;;;;;;;6201473;23;20156;-77
2022/12/28 09:27:33;;;;;;;8.20;7.33;;;;;;;;;;6202807;23;20359;-76
2022/12/28 09:30:07;;;;;;;10.37;9.47;;;;;;;;;;6204500;23;20396;-77
2022/12/28 09:32:40;;;;;;;8.53;7.70;;;;;;;;;;6185462;23;20368;-77
2022/12/28 09:35:06;;;;;;;9.93;9.03;;;;;;;;;;6189692;23;20433;-77
2022/12/28 09:37:44;;;;;;;9.20;8.10;;;;;;;;;;6183125;23;20419;-79
2022/12/28 09:40:14;;;;;;;9.23;8.33;;;;;;;;;;6174393;23;20842;-77
2022/12/28 09:42:45;;;;;;;7.80;7.10;;;;;;;;;;6179068;23;20376;-76
2022/12/28 09:46:01;;;;;;;;;;;;;;;;;;;;;
2022/12/28 09:48:25;;;;;;;8.03;7.33;;;;;;;;;;6185235;23;20447;-76
2022/12/28 09:50:59;;;;;;;6.80;6.10;;;;;;;;;;6204512;23;20391;-76
2022/12/28 09:53:25;;;;;;;7.00;6.30;;;;;;;;;;6189562;23;20398;-78
2022/12/28 09:56:19;;;;;;;6.80;6.20;;;;;;;;;;6193906;23;20415;-77
2022/12/28 10:04:12;;;;;;;4.70;4.30;;;;;;;;;;6258830;22;20449;-76
2022/12/28 10:06:47;;;;;;;6.23;4.10;;;;;;;;;;6245003;23;20355;-76
2022/12/28 10:09:48;;;;;;;4.40;4.07;;;;;;;;;;6246530;22;20397;-77
2022/12/28 10:12:40;;;;;;;4.90;3.90;;;;;;;;;;6257901;22;20373;-77
2022/12/28 10:15:11;;;;;;;3.50;3.20;;;;;;;;;;6265168;22;20362;-78
2022/12/28 10:18:05;;;;;;;4.30;3.90;;;;;;;;;;6239046;22;20504;-78
2022/12/28 10:20:47;;;;;;;3.33;3.03;;;;;;;;;;6267639;22;20394;-75
2022/12/28 10:23:17;;;;;;;4.40;4.00;;;;;;;;;;6264772;22;20389;-78
2022/12/28 11:01:48;;;;;;;3.37;3.07;;;;;;;;;;6245978;22;20426;-79
2022/12/28 11:06:56;;;;;;;3.50;3.20;;;;;;;;;;6234362;23;20406;-69
2022/12/28 11:09:26;;;;;;;3.93;3.53;;;;;;;;;;6237957;23;20448;-68
2022/12/28 11:11:52;;;;;;;3.43;3.13;;;;;;;;;;6240795;23;20928;-69
2022/12/28 11:14:34;;;;;;;3.13;2.83;;;;;;;;;;6237692;23;20347;-69
2022/12/28 11:17:18;;;;;;;3.30;3.03;;;;;;;;;;6240435;22;20496;-69
2022/12/28 11:19:43;;;;;;;3.40;3.10;;;;;;;;;;6240487;22;20366;-69
2022/12/28 11:22:10;;;;;;;4.33;3.10;;;;;;;;;;6239433;23;20773;-68
2022/12/28 11:24:35;;;;;;;3.10;2.90;;;;;;;;;;6240644;22;20163;-69
2022/12/28 11:27:01;;;;;;;3.23;2.93;;;;;;;;;;6239286;23;20851;-68
2022/12/28 11:29:26;;;;;;;4.47;4.07;;;;;;;;;;6238801;22;20151;-68
2022/12/28 11:31:57;;;;;;;4.00;3.70;;;;;;;;;;6239308;23;20370;-68
2022/12/28 11:34:24;;;;;;;4.53;4.13;;;;;;;;;;6239645;22;20151;-68
2022/12/28 11:36:50;;;;;;;5.13;4.63;;;;;;;;;;6234122;22;20966;-68
2022/12/28 11:39:25;;;;;;;4.83;4.43;;;;;;;;;;6233305;23;20439;-68
2022/12/28 11:41:59;;;;;;;4.57;4.23;;;;;;;;;;6237331;22;20545;-68
2022/12/28 11:44:27;;;;;;;7.17;4.97;;;;;;;;;;6237466;22;20358;-68
2022/12/28 11:47:01;;;;;;;4.67;4.27;;;;;;;;;;6236118;23;20389;-68
2022/12/28 11:49:28;;;;;;;6.03;4.43;;;;;;;;;;6237495;22;20366;-68
2022/12/28 11:52:12;;;;;;;7.50;4.00;;;;;;;;;;6237986;22;20392;-68
2022/12/28 11:54:48;;;;;;;4.10;3.70;;;;;;;;;;6239838;23;20389;-68
2022/12/28 11:57:31;;;;;;;4.40;4.00;;;;;;;;;;6239016;22;20398;-69
2022/12/28 12:00:17;;;;;;;6.20;3.50;;;;;;;;;;6239599;22;20346;-68
2022/12/28 12:02:50;;;;;;;5.10;3.53;;;;;;;;;;6239404;22;20445;-68
2022/12/28 12:05:34;;;;;;;3.57;3.27;;;;;;;;;;6237104;23;20888;-68
2022/12/28 12:08:00;;;;;;;4.80;3.97;;;;;;;;;;6239606;23;20374;-68
2022/12/28 12:10:28;;;;;;;7.20;3.10;;;;;;;;;;6238730;22;20444;-69
2022/12/28 12:12:53;;;;;;;4.23;3.83;;;;;;;;;;6240866;22;20197;-68
2022/12/28 12:15:39;;;;;;;4.73;4.33;;;;;;;;;;6240647;23;20916;-69
2022/12/28 12:18:06;;;;;;;5.10;4.70;;;;;;;;;;6240224;23;20293;-68
2022/12/28 12:20:49;;;;;;;4.73;4.13;;;;;;;;;;6241764;22;20373;-68
2022/12/28 12:23:25;;;;;;;4.77;4.27;;;;;;;;;;6240597;23;20903;-68
2022/12/28 12:25:53;;;;;;;5.00;4.50;;;;;;;;;;6241769;22;20389;-68
2022/12/28 12:28:40;;;;;;;4.37;4.07;;;;;;;;;;6241619;22;20853;-68
2022/12/28 12:31:07;;;;;;;4.17;3.87;;;;;;;;;;6243209;22;20374;-68
2022/12/28 12:33:39;;;;;;;4.07;3.77;;;;;;;;;;6242127;22;20432;-69
2022/12/28 12:36:36;;;;;;;4.13;3.70;;;;;;;;;;6241716;22;20477;-68
2022/12/28 12:39:22;;;;;;;3.03;2.73;;;;;;;;;;6207400;23;20386;-68
2022/12/28 12:42:06;;;;;;;3.03;2.80;;;;;;;;;;6242328;23;20385;-68
2022/12/28 12:44:35;;;;;;;3.10;2.80;;;;;;;;;;6242363;22;20459;-68
2022/12/28 12:47:34;;;;;;;3.13;2.73;;;;;;;;;;6242111;23;20369;-68
2022/12/28 12:50:02;;;;;;;2.70;2.50;;;;;;;;;;6208193;23;20367;-68
2022/12/28 12:52:33;;;;;;;2.90;2.60;;;;;;;;;;6241720;23;20358;-69
2022/12/28 12:55:21;;;;;;;2.50;2.30;;;;;;;;;;6242486;23;20468;-69
2022/12/28 12:57:46;;;;;;;3.00;2.70;;;;;;;;;;6218316;22;20808;-68
2022/12/28 13:00:16;;;;;;;2.53;2.33;;;;;;;;;;6241797;23;20401;-68
2022/12/28 13:02:49;;;;;;;2.30;2.10;;;;;;;;;;6241687;22;20227;-68
2022/12/28 13:05:17;;;;;;;3.00;2.80;;;;;;;;;;6242304;22;20406;-68
2022/12/28 13:07:43;;;;;;;2.20;2.03;;;;;;;;;;6241399;22;20370;-68
2022/12/28 13:10:13;;;;;;;2.93;2.63;;;;;;;;;;6242100;22;20381;-68
2022/12/28 13:12:39;;;;;;;2.60;2.40;;;;;;;;;;6242384;22;20123;-68
2022/12/28 13:15:05;;;;;;;2.70;2.50;;;;;;;;;;6240478;23;20397;-68
2022/12/28 13:17:30;;;;;;;4.00;3.00;;;;;;;;;;6241022;22;20428;-68
2022/12/28 13:20:09;;;;;;;4.90;3.30;;;;;;;;;;6242102;23;20223;-68
2022/12/28 13:22:34;;;;;;;2.90;2.50;;;;;;;;;;6241755;22;20189;-68
2022/12/28 13:24:59;;;;;;;4.13;2.87;;;;;;;;;;6239682;23;20884;-68
2022/12/28 13:27:29;;;;;;;3.50;3.20;;;;;;;;;;6241574;23;20201;-68
2022/12/28 13:29:55;;;;;;;3.10;2.80;;;;;;;;;;6242012;23;20209;-68
2022/12/28 13:32:24;;;;;;;3.73;3.40;;;;;;;;;;6239452;23;20828;-69
2022/12/28 13:34:49;;;;;;;3.67;3.33;;;;;;;;;;6242546;23;20174;-68
2022/12/28 13:37:15;;;;;;;3.53;2.83;;;;;;;;;;6237812;23;20410;-68
2022/12/28 13:39:41;;;;;;;3.27;2.97;;;;;;;;;;6241851;22;20140;-68
2022/12/28 13:42:20;;;;;;;3.43;3.13;;;;;;;;;;6239004;22;20170;-68
2022/12/28 13:45:06;;;;;;;3.90;2.87;;;;;;;;;;6240966;22;20498;-68
2022/12/28 13:47:41;;;;;;;3.37;2.80;;;;;;;;;;6240990;22;20388;-68
2022/12/28 13:50:11;;;;;;;2.90;2.70;;;;;;;;;;6241301;22;20770;-68
2022/12/28 13:52:41;;;;;;;3.43;2.90;;;;;;;;;;6241281;22;20375;-68
2022/12/28 13:55:10;;;;;;;2.90;2.70;;;;;;;;;;6241522;22;20421;-68
2022/12/28 13:57:36;;;;;;;2.80;2.60;;;;;;;;;;6241134;22;20410;-68
2022/12/28 14:00:02;;;;;;;2.80;2.30;;;;;;;;;;6241551;22;20461;-69
2022/12/28 14:02:28;;;;;;;3.50;2.67;;;;;;;;;;6241954;22;20867;-68
2022/12/28 14:04:53;;;;;;;2.90;2.00;;;;;;;;;;6239110;23;20402;-69
2022/12/28 14:07:20;;;;;;;3.10;2.37;;;;;;;;;;6238275;22;20154;-69
2022/12/28 14:09:46;;;;;;;6.43;2.40;;;;;;;;;;6236254;22;20147;-69
2022/12/28 14:12:12;;;;;;;2.47;2.27;;;;;;;;;;6240181;22;20445;-69
2022/12/28 14:14:38;;;;;;;3.37;2.60;;;;;;;;;;6238766;22;20167;-68
2022/12/28 14:17:04;;;;;;;4.00;2.57;;;;;;;;;;6237131;22;20410;-68
2022/12/28 14:19:29;;;;;;;2.43;2.00;;;;;;;;;;6239888;22;20441;-69
2022/12/28 14:21:54;;;;;;;6.60;3.30;;;;;;;;;;6240755;22;20150;-69
2022/12/28 14:24:20;;;;;;;4.70;2.30;;;;;;;;;;6239173;23;20594;-69
2022/12/28 14:26:51;;;;;;;2.43;1.83;;;;;;;;;;6241250;23;20213;-70
2022/12/28 14:29:19;;;;;;;1.97;1.83;;;;;;;;;;6241327;22;20147;-69
2022/12/28 14:31:44;;;;;;;3.80;1.73;;;;;;;;;;6235718;22;20861;-69
2022/12/28 14:34:19;;;;;;;1.87;1.73;;;;;;;;;;6234488;23;20639;-68
2022/12/28 14:36:49;;;;;;;2.00;1.53;;;;;;;;;;6237100;22;20220;-68
2022/12/28 14:39:35;;;;;;;2.17;1.43;;;;;;;;;;6240839;22;20373;-69
2022/12/28 14:42:02;;;;;;;1.90;1.57;;;;;;;;;;6264473;22;20405;-71
2022/12/28 14:44:31;;;;;;;2.57;1.50;;;;;;;;;;6241064;22;20757;-70
2022/12/28 14:46:57;;;;;;;2.93;1.80;;;;;;;;;;6237194;23;20378;-69
2022/12/28 14:49:25;;;;;;;1.90;1.70;;;;;;;;;;6239038;22;20848;-69
2022/12/28 14:51:50;;;;;;;1.50;1.40;;;;;;;;;;6237695;23;20164;-70
2022/12/28 14:54:22;;;;;;;5.67;1.63;;;;;;;;;;6237124;23;20416;-69
2022/12/28 14:56:58;;;;;;;10.23;6.70;;;;;;;;;;6239612;22;20167;-69
2022/12/28 14:59:26;;;;;;;5.30;4.80;;;;;;;;;;6236450;23;20378;-69
2022/12/28 15:01:51;;;;;;;4.07;2.30;;;;;;;;;;6237109;23;20385;-69
2022/12/28 15:04:35;;;;;;;4.40;1.80;;;;;;;;;;6235331;23;20378;-70
2022/12/28 15:07:01;;;;;;;1.77;1.50;;;;;;;;;;6238592;23;20139;-69
2022/12/28 15:09:26;;;;;;;5.80;1.77;;;;;;;;;;6238731;22;20385;-69
2022/12/28 15:12:10;;;;;;;3.60;2.00;;;;;;;;;;6237775;23;20147;-69
2022/12/28 15:14:36;;;;;;;5.07;2.07;;;;;;;;;;6238645;23;20325;-69
2022/12/28 15:17:01;;;;;;;2.70;1.70;;;;;;;;;;6240274;22;20441;-68
2022/12/28 15:19:26;;;;;;;2.97;2.10;;;;;;;;;;6238712;23;20274;-69
2022/12/28 15:21:52;;;;;;;4.10;1.80;;;;;;;;;;6240747;23;20576;-69
2022/12/28 15:24:17;;;;;;;2.90;1.53;;;;;;;;;;6239632;23;20824;-69
2022/12/28 15:26:42;;;;;;;2.70;1.47;;;;;;;;;;6241057;22;20557;-69
2022/12/28 15:29:08;;;;;;;3.70;1.80;;;;;;;;;;6238813;23;20613;-69
2022/12/28 15:31:33;;;;;;;2.43;1.60;;;;;;;;;;6240140;23;20150;-69
2022/12/28 15:33:58;;;;;;;3.60;1.97;;;;;;;;;;6240927;23;20221;-69
2022/12/28 15:36:23;;;;;;;3.70;1.80;;;;;;;;;;6240788;23;20403;-69
2022/12/28 15:38:49;;;;;;;3.90;1.70;;;;;;;;;;6239810;23;20590;-69
2022/12/28 15:43:59;;;;;;;3.70;1.93;;;;;;;;;;6240099;23;20479;-69
2022/12/28 15:46:24;;;;;;;4.60;2.20;;;;;;;;;;6240232;23;20387;-69
2022/12/28 15:48:49;;;;;;;2.90;2.00;;;;;;;;;;6239655;22;20190;-69
2022/12/28 15:51:15;;;;;;;4.77;2.57;;;;;;;;;;6240910;23;20147;-69
2022/12/28 15:53:41;;;;;;;6.33;2.40;;;;;;;;;;6240051;23;20147;-69
2022/12/28 15:56:16;;;;;;;6.67;3.00;;;;;;;;;;6239953;23;20765;-69
2022/12/28 15:58:42;;;;;;;4.70;2.80;;;;;;;;;;6240058;22;20162;-69
2022/12/28 16:01:07;;;;;;;2.90;2.40;;;;;;;;;;6239813;23;20371;-69
2022/12/28 16:03:32;;;;;;;6.37;2.60;;;;;;;;;;6239066;23;20238;-69
2022/12/28 16:05:58;;;;;;;8.87;3.40;;;;;;;;;;6238260;23;20190;-69
2022/12/28 16:08:23;;;;;;;5.30;2.77;;;;;;;;;;6239604;22;20373;-69
2022/12/28 16:10:49;;;;;;;6.13;3.03;;;;;;;;;;6237163;22;20162;-69
2022/12/28 16:13:14;;;;;;;4.73;2.90;;;;;;;;;;6233389;23;20230;-69
2022/12/28 16:15:39;;;;;;;5.10;3.07;;;;;;;;;;6236054;23;20185;-69
2022/12/28 16:18:05;;;;;;;4.63;3.70;;;;;;;;;;6237056;23;20229;-69
2022/12/28 16:20:30;;;;;;;8.47;3.27;;;;;;;;;;6239049;23;20175;-69
2022/12/28 16:22:55;;;;;;;6.87;3.30;;;;;;;;;;6236959;23;20579;-70
2022/12/28 16:25:20;;;;;;;9.30;4.20;;;;;;;;;;6234861;23;20263;-69